sensor_id;sensor_type;location;lat;lon;timestamp;pressure;altitude;pressure_sealevel;temperature;humidity
78890;BME280;68279;48.964;14.502;2023-06-10T00:01:58;96789.19;;;14.35;100.00
78890;BME280;68279;48.964;14.502;2023-06-10T00:04:27;96788.06;;;14.36;100.00
78890;BME280;68279;48.964;14.502;2023-06-10T00:06:54;96795.03;;;14.37;100.00
78890;BME280;68279;48.964;14.502;2023-06-10T00:09:22;96794.13;;;14.42;100.00
78890;BME280;68279;48.964;14.502;2023-06-10T00:11:48;96784.75;;;14.39;100.00
78890;BME280;68279;48.964;14.502;2023-06-10T00:14:14;96784.47;;;14.41;100.00
78890;BME280;68279;48.964;14.502;2023-06-10T00:16:40;96776.00;;;14.25;100.00
78890;BME280;68279;48.964;14.502;2023-06-10T00:19:06;96783.13;;;14.30;100.00
78890;BME280;68279;48.964;14.502;2023-06-10T00:21:33;96782.50;;;14.24;100.00
78890;BME280;68279;48.964;14.502;2023-06-10T00:24:06;96784.13;;;14.34;100.00
78890;BME280;68279;48.964;14.502;2023-06-10T00:26:33;96779.44;;;14.17;100.00
78890;BME280;68279;48.964;14.502;2023-06-10T00:28:59;96780.66;;;14.11;100.00
78890;BME280;68279;48.964;14.502;2023-06-10T00:31:30;96783.97;;;14.08;100.00
78890;BME280;68279;48.964;14.502;2023-06-10T00:33:59;96785.25;;;14.10;100.00
78890;BME280;68279;48.964;14.502;2023-06-10T00:36:25;96786.66;;;14.08;100.00
78890;BME280;68279;48.964;14.502;2023-06-10T00:38:52;96789.69;;;14.06;100.00
78890;BME280;68279;48.964;14.502;2023-06-10T00:41:18;96793.47;;;14.05;100.00
78890;BME280;68279;48.964;14.502;2023-06-10T00:43:46;96792.16;;;14.03;100.00
78890;BME280;68279;48.964;14.502;2023-06-10T00:46:16;96784.41;;;14.01;100.00
78890;BME280;68279;48.964;14.502;2023-06-10T00:48:45;96790.59;;;14.02;100.00
78890;BME280;68279;48.964;14.502;2023-06-10T00:51:14;96789.06;;;14.09;100.00
78890;BME280;68279;48.964;14.502;2023-06-10T00:53:41;96783.84;;;14.13;100.00
78890;BME280;68279;48.964;14.502;2023-06-10T00:56:11;96777.84;;;14.16;100.00
78890;BME280;68279;48.964;14.502;2023-06-10T00:58:36;96785.13;;;14.15;100.00
78890;BME280;68279;48.964;14.502;2023-06-10T01:01:04;96780.66;;;14.11;100.00
78890;BME280;68279;48.964;14.502;2023-06-10T01:03:30;96784.03;;;14.16;100.00
78890;BME280;68279;48.964;14.502;2023-06-10T01:06:06;96781.81;;;14.18;100.00
78890;BME280;68279;48.964;14.502;2023-06-10T01:08:46;96784.25;;;14.29;100.00
78890;BME280;68279;48.964;14.502;2023-06-10T01:11:25;96779.22;;;14.36;100.00
78890;BME280;68279;48.964;14.502;2023-06-10T01:13:55;96787.75;;;14.38;100.00
78890;BME280;68279;48.964;14.502;2023-06-10T01:16:22;96787.81;;;14.47;100.00
78890;BME280;68279;48.964;14.502;2023-06-10T01:18:50;96788.31;;;14.49;100.00
78890;BME280;68279;48.964;14.502;2023-06-10T01:21:20;96783.56;;;14.45;100.00
78890;BME280;68279;48.964;14.502;2023-06-10T01:23:47;96786.25;;;14.45;100.00
78890;BME280;68279;48.964;14.502;2023-06-10T01:26:13;96787.59;;;14.34;100.00
78890;BME280;68279;48.964;14.502;2023-06-10T01:28:52;96793.31;;;14.41;100.00
78890;BME280;68279;48.964;14.502;2023-06-10T01:31:42;96793.41;;;14.50;100.00
78890;BME280;68279;48.964;14.502;2023-06-10T01:34:10;96789.59;;;14.51;100.00
78890;BME280;68279;48.964;14.502;2023-06-10T01:36:40;96787.53;;;14.57;100.00
78890;BME280;68279;48.964;14.502;2023-06-10T01:39:08;96800.56;;;14.63;100.00
78890;BME280;68279;48.964;14.502;2023-06-10T01:41:34;96803.72;;;14.65;100.00
78890;BME280;68279;48.964;14.502;2023-06-10T01:44:00;96805.16;;;14.63;100.00
78890;BME280;68279;48.964;14.502;2023-06-10T01:46:26;96796.75;;;14.64;100.00
78890;BME280;68279;48.964;14.502;2023-06-10T01:48:52;96801.34;;;14.64;100.00
78890;BME280;68279;48.964;14.502;2023-06-10T01:51:18;96802.00;;;14.69;100.00
78890;BME280;68279;48.964;14.502;2023-06-10T01:53:44;96805.16;;;14.63;100.00
78890;BME280;68279;48.964;14.502;2023-06-10T01:56:10;96805.31;;;14.66;100.00
78890;BME280;68279;48.964;14.502;2023-06-10T01:58:42;96805.16;;;14.63;100.00
78890;BME280;68279;48.964;14.502;2023-06-10T02:01:07;96804.19;;;14.59;100.00
78890;BME280;68279;48.964;14.502;2023-06-10T02:03:34;96798.03;;;14.58;100.00
78890;BME280;68279;48.964;14.502;2023-06-10T02:06:00;96795.78;;;14.52;100.00
78890;BME280;68279;48.964;14.502;2023-06-10T02:08:25;96801.47;;;14.50;100.00
78890;BME280;68279;48.964;14.502;2023-06-10T02:10:52;96798.16;;;14.53;100.00
78890;BME280;68279;48.964;14.502;2023-06-10T02:13:19;96811.75;;;14.57;100.00
78890;BME280;68279;48.964;14.502;2023-06-10T02:15:45;96801.78;;;14.57;100.00
78890;BME280;68279;48.964;14.502;2023-06-10T02:18:11;96805.91;;;14.55;100.00
78890;BME280;68279;48.964;14.502;2023-06-10T02:20:38;96800.41;;;14.60;100.00
78890;BME280;68279;48.964;14.502;2023-06-10T02:23:04;96806.69;;;14.55;100.00
78890;BME280;68279;48.964;14.502;2023-06-10T02:25:30;96813.06;;;14.59;100.00
78890;BME280;68279;48.964;14.502;2023-06-10T02:27:57;96799.75;;;14.63;100.00
78890;BME280;68279;48.964;14.502;2023-06-10T02:30:22;96805.31;;;14.58;100.00
78890;BME280;68279;48.964;14.502;2023-06-10T02:32:48;96811.75;;;14.57;100.00
78890;BME280;68279;48.964;14.502;2023-06-10T02:35:14;96810.97;;;14.56;100.00
78890;BME280;68279;48.964;14.502;2023-06-10T02:37:40;96801.97;;;14.61;100.00
78890;BME280;68279;48.964;14.502;2023-06-10T02:40:07;96810.84;;;14.61;100.00
78890;BME280;68279;48.964;14.502;2023-06-10T02:42:34;96809.56;;;14.59;100.00
78890;BME280;68279;48.964;14.502;2023-06-10T02:45:00;96800.06;;;14.61;100.00
78890;BME280;68279;48.964;14.502;2023-06-10T02:47:27;96803.09;;;14.60;100.00
78890;BME280;68279;48.964;14.502;2023-06-10T02:49:53;96808.28;;;14.56;100.00
78890;BME280;68279;48.964;14.502;2023-06-10T02:52:19;96797.50;;;14.56;100.00
78890;BME280;68279;48.964;14.502;2023-06-10T02:54:45;96803.41;;;14.58;100.00
78890;BME280;68279;48.964;14.502;2023-06-10T02:57:11;96803.25;;;14.63;100.00
78890;BME280;68279;48.964;14.502;2023-06-10T02:59:37;96800.72;;;14.58;100.00
78890;BME280;68279;48.964;14.502;2023-06-10T03:02:03;96803.22;;;14.55;100.00
78890;BME280;68279;48.964;14.502;2023-06-10T03:04:29;96800.06;;;14.61;100.00
78890;BME280;68279;48.964;14.502;2023-06-10T03:06:56;96806.69;;;14.55;100.00
78890;BME280;68279;48.964;14.502;2023-06-10T03:09:21;96810.06;;;14.61;100.00
78890;BME280;68279;48.964;14.502;2023-06-10T03:11:47;96802.59;;;14.58;100.00
78890;BME280;68279;48.964;14.502;2023-06-10T03:14:12;96799.44;;;14.64;100.00
78890;BME280;68279;48.964;14.502;2023-06-10T03:16:38;96802.13;;;14.64;100.00
78890;BME280;68279;48.964;14.502;2023-06-10T03:19:08;96801.53;;;14.67;100.00
78890;BME280;68279;48.964;14.502;2023-06-10T03:21:37;96808.63;;;14.63;100.00
78890;BME280;68279;48.964;14.502;2023-06-10T03:24:03;96806.25;;;14.62;100.00
78890;BME280;68279;48.964;14.502;2023-06-10T03:26:29;96810.03;;;14.52;100.00
78890;BME280;68279;48.964;14.502;2023-06-10T03:28:55;96809.88;;;14.57;100.00
78890;BME280;68279;48.964;14.502;2023-06-10T03:31:20;96808.78;;;14.58;100.00
78890;BME280;68279;48.964;14.502;2023-06-10T03:33:46;96820.00;;;14.52;100.00
78890;BME280;68279;48.964;14.502;2023-06-10T03:36:12;96825.31;;;14.43;100.00
78890;BME280;68279;48.964;14.502;2023-06-10T03:38:37;96814.28;;;14.53;100.00
78890;BME280;68279;48.964;14.502;2023-06-10T03:41:03;96826.00;;;14.57;100.00
78890;BME280;68279;48.964;14.502;2023-06-10T03:43:29;96822.38;;;14.53;100.00
78890;BME280;68279;48.964;14.502;2023-06-10T03:45:56;96828.22;;;14.55;100.00
78890;BME280;68279;48.964;14.502;2023-06-10T03:48:23;96823.34;;;14.66;100.00
78890;BME280;68279;48.964;14.502;2023-06-10T03:50:48;96825.25;;;14.65;100.00
78890;BME280;68279;48.964;14.502;2023-06-10T03:53:16;96825.88;;;14.62;100.00
78890;BME280;68279;48.964;14.502;2023-06-10T03:55:42;96821.31;;;14.71;100.00
78890;BME280;68279;48.964;14.502;2023-06-10T03:58:08;96820.22;;;14.72;100.00
78890;BME280;68279;48.964;14.502;2023-06-10T04:00:33;96822.16;;;14.81;100.00
78890;BME280;68279;48.964;14.502;2023-06-10T04:03:10;96832.47;;;14.87;99.73
78890;BME280;68279;48.964;14.502;2023-06-10T04:05:40;96827.72;;;14.93;99.11
78890;BME280;68279;48.964;14.502;2023-06-10T04:08:07;96833.75;;;14.90;99.94
78890;BME280;68279;48.964;14.502;2023-06-10T04:10:33;96836.47;;;14.98;99.40
78890;BME280;68279;48.964;14.502;2023-06-10T04:12:59;96833.94;;;15.02;99.25
78890;BME280;68279;48.964;14.502;2023-06-10T04:15:25;96838.38;;;15.07;98.44
78890;BME280;68279;48.964;14.502;2023-06-10T04:17:51;96844.75;;;15.11;99.61
78890;BME280;68279;48.964;14.502;2023-06-10T04:20:16;96838.69;;;14.96;98.31
78890;BME280;68279;48.964;14.502;2023-06-10T04:22:42;96839.81;;;15.04;99.44
78890;BME280;68279;48.964;14.502;2023-06-10T04:25:09;96842.50;;;15.04;98.40
78890;BME280;68279;48.964;14.502;2023-06-10T04:27:35;96841.91;;;15.24;98.55
78890;BME280;68279;48.964;14.502;2023-06-10T04:30:03;96840.31;;;15.23;96.43
78890;BME280;68279;48.964;14.502;2023-06-10T04:32:29;96833.00;;;15.07;97.07
78890;BME280;68279;48.964;14.502;2023-06-10T04:34:55;96841.19;;;14.93;99.20
78890;BME280;68279;48.964;14.502;2023-06-10T04:37:21;96838.19;;;14.86;98.72
78890;BME280;68279;48.964;14.502;2023-06-10T04:39:47;96845.81;;;15.01;98.64
78890;BME280;68279;48.964;14.502;2023-06-10T04:42:14;96839.16;;;14.98;98.10
78890;BME280;68279;48.964;14.502;2023-06-10T04:44:40;96841.69;;;14.95;98.39
78890;BME280;68279;48.964;14.502;2023-06-10T04:47:06;96846.75;;;14.96;99.29
78890;BME280;68279;48.964;14.502;2023-06-10T04:49:34;96853.06;;;14.92;98.78
78890;BME280;68279;48.964;14.502;2023-06-10T04:52:01;96853.91;;;15.10;98.55
78890;BME280;68279;48.964;14.502;2023-06-10T04:54:31;96843.63;;;15.12;99.06
78890;BME280;68279;48.964;14.502;2023-06-10T04:56:57;96851.72;;;15.12;97.55
78890;BME280;68279;48.964;14.502;2023-06-10T04:59:23;96852.03;;;15.19;98.39
78890;BME280;68279;48.964;14.502;2023-06-10T05:01:49;96848.53;;;15.10;98.08
78890;BME280;68279;48.964;14.502;2023-06-10T05:04:14;96852.34;;;15.17;98.36
78890;BME280;68279;48.964;14.502;2023-06-10T05:06:40;96846.84;;;15.48;96.98
78890;BME280;68279;48.964;14.502;2023-06-10T05:09:05;96857.47;;;15.53;95.64
78890;BME280;68279;48.964;14.502;2023-06-10T05:11:31;96859.22;;;15.58;96.09
78890;BME280;68279;48.964;14.502;2023-06-10T05:13:56;96866.72;;;15.78;96.03
78890;BME280;68279;48.964;14.502;2023-06-10T05:16:22;96854.91;;;16.35;94.04
78890;BME280;68279;48.964;14.502;2023-06-10T05:18:48;96860.66;;;16.16;93.03
78890;BME280;68279;48.964;14.502;2023-06-10T05:21:14;96865.34;;;16.54;92.88
78890;BME280;68279;48.964;14.502;2023-06-10T05:23:41;96862.91;;;15.97;92.62
78890;BME280;68279;48.964;14.502;2023-06-10T05:26:06;96865.25;;;16.07;93.69
78890;BME280;68279;48.964;14.502;2023-06-10T05:28:32;96866.53;;;16.27;92.41
78890;BME280;68279;48.964;14.502;2023-06-10T05:30:58;96869.53;;;16.25;92.26
78890;BME280;68279;48.964;14.502;2023-06-10T05:33:26;96873.34;;;16.07;93.49
78890;BME280;68279;48.964;14.502;2023-06-10T05:35:52;96869.06;;;16.14;93.92
78890;BME280;68279;48.964;14.502;2023-06-10T05:38:18;96869.84;;;16.24;92.68
78890;BME280;68279;48.964;14.502;2023-06-10T05:40:45;96874.31;;;16.20;92.37
78890;BME280;68279;48.964;14.502;2023-06-10T05:43:11;96875.44;;;15.84;92.87
78890;BME280;68279;48.964;14.502;2023-06-10T05:45:39;96871.63;;;15.85;93.86
78890;BME280;68279;48.964;14.502;2023-06-10T05:48:05;96873.22;;;16.03;92.27
78890;BME280;68279;48.964;14.502;2023-06-10T05:50:31;96869.88;;;15.80;94.39
78890;BME280;68279;48.964;14.502;2023-06-10T05:53:07;96869.41;;;16.04;93.77
78890;BME280;68279;48.964;14.502;2023-06-10T05:55:42;96871.44;;;16.25;94.19
78890;BME280;68279;48.964;14.502;2023-06-10T05:58:08;96877.94;;;16.24;91.96
78890;BME280;68279;48.964;14.502;2023-06-10T06:00:34;96873.03;;;16.34;93.15
78890;BME280;68279;48.964;14.502;2023-06-10T06:03:02;96876.03;;;16.15;93.21
78890;BME280;68279;48.964;14.502;2023-06-10T06:05:27;96870.78;;;16.45;91.25
78890;BME280;68279;48.964;14.502;2023-06-10T06:07:54;96880.41;;;16.63;92.61
78890;BME280;68279;48.964;14.502;2023-06-10T06:10:20;96869.78;;;16.50;92.28
78890;BME280;68279;48.964;14.502;2023-06-10T06:12:45;96871.78;;;16.87;89.60
78890;BME280;68279;48.964;14.502;2023-06-10T06:15:11;96873.28;;;17.35;89.06
78890;BME280;68279;48.964;14.502;2023-06-10T06:17:38;96875.91;;;16.85;88.77
78890;BME280;68279;48.964;14.502;2023-06-10T06:20:04;96873.00;;;17.28;87.90
78890;BME280;68279;48.964;14.502;2023-06-10T06:22:29;96868.97;;;17.34;87.74
78890;BME280;68279;48.964;14.502;2023-06-10T06:24:55;96870.34;;;17.19;87.63
78890;BME280;68279;48.964;14.502;2023-06-10T06:27:22;96873.31;;;17.26;86.92
78890;BME280;68279;48.964;14.502;2023-06-10T06:29:47;96871.75;;;17.25;86.42
78890;BME280;68279;48.964;14.502;2023-06-10T06:32:13;96869.75;;;16.58;89.64
78890;BME280;68279;48.964;14.502;2023-06-10T06:34:38;96873.78;;;16.99;88.84
78890;BME280;68279;48.964;14.502;2023-06-10T06:37:04;96882.31;;;17.10;87.79
78890;BME280;68279;48.964;14.502;2023-06-10T06:39:30;96884.00;;;16.85;88.64
78890;BME280;68279;48.964;14.502;2023-06-10T06:41:56;96884.66;;;16.82;90.32
78890;BME280;68279;48.964;14.502;2023-06-10T06:44:22;96874.03;;;16.59;90.04
78890;BME280;68279;48.964;14.502;2023-06-10T06:46:48;96883.69;;;16.78;89.46
78890;BME280;68279;48.964;14.502;2023-06-10T06:49:14;96889.38;;;16.93;89.26
78890;BME280;68279;48.964;14.502;2023-06-10T06:51:39;96885.19;;;16.49;89.62
78890;BME280;68279;48.964;14.502;2023-06-10T06:54:05;96896.97;;;17.00;89.04
78890;BME280;68279;48.964;14.502;2023-06-10T06:56:31;96896.03;;;16.96;88.73
78890;BME280;68279;48.964;14.502;2023-06-10T06:58:56;96896.88;;;16.88;88.79
78890;BME280;68279;48.964;14.502;2023-06-10T07:01:22;96893.97;;;16.93;89.23
78890;BME280;68279;48.964;14.502;2023-06-10T07:03:48;96898.69;;;17.05;88.23
78890;BME280;68279;48.964;14.502;2023-06-10T07:06:15;96897.69;;;17.18;87.08
78890;BME280;68279;48.964;14.502;2023-06-10T07:08:40;96903.38;;;17.25;86.87
78890;BME280;68279;48.964;14.502;2023-06-10T07:11:06;96910.03;;;16.98;87.85
78890;BME280;68279;48.964;14.502;2023-06-10T07:13:31;96900.09;;;17.40;86.40
78890;BME280;68279;48.964;14.502;2023-06-10T07:16:00;96906.91;;;17.46;87.38
78890;BME280;68279;48.964;14.502;2023-06-10T07:18:25;96908.56;;;17.01;87.93
78890;BME280;68279;48.964;14.502;2023-06-10T07:20:51;96903.41;;;17.46;86.25
78890;BME280;68279;48.964;14.502;2023-06-10T07:23:17;96908.25;;;17.61;85.96
78890;BME280;68279;48.964;14.502;2023-06-10T07:25:42;96911.28;;;17.30;86.84
78890;BME280;68279;48.964;14.502;2023-06-10T07:28:08;96908.16;;;17.49;85.84
78890;BME280;68279;48.964;14.502;2023-06-10T07:30:33;96909.56;;;17.55;86.68
78890;BME280;68279;48.964;14.502;2023-06-10T07:32:59;96914.47;;;17.62;87.26
78890;BME280;68279;48.964;14.502;2023-06-10T07:35:26;96917.53;;;17.81;84.89
78890;BME280;68279;48.964;14.502;2023-06-10T07:37:51;96915.56;;;17.90;84.12
78890;BME280;68279;48.964;14.502;2023-06-10T07:40:17;96917.75;;;17.97;85.37
78890;BME280;68279;48.964;14.502;2023-06-10T07:42:42;96914.88;;;17.72;84.24
78890;BME280;68279;48.964;14.502;2023-06-10T07:45:08;96919.25;;;18.06;82.89
78890;BME280;68279;48.964;14.502;2023-06-10T07:47:34;96910.16;;;18.11;82.66
78890;BME280;68279;48.964;14.502;2023-06-10T07:50:00;96913.16;;;18.30;82.49
78890;BME280;68279;48.964;14.502;2023-06-10T07:52:26;96917.06;;;18.00;83.41
78890;BME280;68279;48.964;14.502;2023-06-10T07:54:55;96915.81;;;17.97;85.00
78890;BME280;68279;48.964;14.502;2023-06-10T07:57:20;96923.66;;;18.32;85.49
78890;BME280;68279;48.964;14.502;2023-06-10T07:59:46;96922.34;;;18.17;82.16
78890;BME280;68279;48.964;14.502;2023-06-10T08:02:11;96915.31;;;18.37;83.92
78890;BME280;68279;48.964;14.502;2023-06-10T08:04:37;96918.00;;;18.58;81.31
78890;BME280;68279;48.964;14.502;2023-06-10T08:07:03;96909.38;;;18.89;80.59
78890;BME280;68279;48.964;14.502;2023-06-10T08:09:28;96914.16;;;18.92;78.56
78890;BME280;68279;48.964;14.502;2023-06-10T08:11:54;96913.47;;;18.83;79.10
78890;BME280;68279;48.964;14.502;2023-06-10T08:14:21;96917.25;;;18.70;78.72
78890;BME280;68279;48.964;14.502;2023-06-10T08:16:47;96911.91;;;18.61;81.00
78890;BME280;68279;48.964;14.502;2023-06-10T08:19:12;96916.63;;;18.85;80.08
78890;BME280;68279;48.964;14.502;2023-06-10T08:21:38;96919.22;;;19.42;77.47
78890;BME280;68279;48.964;14.502;2023-06-10T08:24:09;96919.13;;;19.39;78.40
78890;BME280;68279;48.964;14.502;2023-06-10T08:26:35;96921.59;;;19.07;79.59
78890;BME280;68279;48.964;14.502;2023-06-10T08:29:00;96928.38;;;19.25;81.22
78890;BME280;68279;48.964;14.502;2023-06-10T08:31:26;96926.66;;;18.96;79.41
78890;BME280;68279;48.964;14.502;2023-06-10T08:33:51;96925.88;;;18.63;79.16
78890;BME280;68279;48.964;14.502;2023-06-10T08:36:17;96925.88;;;18.84;79.92
78890;BME280;68279;48.964;14.502;2023-06-10T08:38:43;96935.22;;;18.74;78.52
78890;BME280;68279;48.964;14.502;2023-06-10T08:41:09;96932.34;;;19.04;78.34
78890;BME280;68279;48.964;14.502;2023-06-10T08:43:48;96929.47;;;18.76;81.42
78890;BME280;68279;48.964;14.502;2023-06-10T08:46:19;96930.00;;;19.27;78.41
78890;BME280;68279;48.964;14.502;2023-06-10T08:48:47;96925.34;;;19.27;78.31
78890;BME280;68279;48.964;14.502;2023-06-10T08:51:16;96932.34;;;19.40;77.39
78890;BME280;68279;48.964;14.502;2023-06-10T08:53:50;96923.84;;;19.05;79.78
78890;BME280;68279;48.964;14.502;2023-06-10T08:56:19;96931.09;;;19.50;78.39
78890;BME280;68279;48.964;14.502;2023-06-10T08:58:47;96927.78;;;20.33;77.79
78890;BME280;68279;48.964;14.502;2023-06-10T09:01:13;96923.66;;;20.40;73.01
78890;BME280;68279;48.964;14.502;2023-06-10T09:03:39;96932.88;;;19.95;75.42
78890;BME280;68279;48.964;14.502;2023-06-10T09:06:07;96928.84;;;19.40;76.77
78890;BME280;68279;48.964;14.502;2023-06-10T09:08:36;96918.34;;;19.26;77.81
78890;BME280;68279;48.964;14.502;2023-06-10T09:11:01;96920.81;;;19.31;76.79
78890;BME280;68279;48.964;14.502;2023-06-10T09:13:27;96923.78;;;19.26;78.98
78890;BME280;68279;48.964;14.502;2023-06-10T09:15:53;96919.94;;;19.27;76.75
78890;BME280;68279;48.964;14.502;2023-06-10T09:18:22;96922.28;;;19.41;77.56
78890;BME280;68279;48.964;14.502;2023-06-10T09:20:47;96920.69;;;19.76;76.41
78890;BME280;68279;48.964;14.502;2023-06-10T09:23:15;96926.50;;;20.15;74.79
78890;BME280;68279;48.964;14.502;2023-06-10T09:25:42;96915.88;;;20.38;75.39
78890;BME280;68279;48.964;14.502;2023-06-10T09:28:15;96925.88;;;20.22;75.06
78890;BME280;68279;48.964;14.502;2023-06-10T09:30:41;96926.31;;;20.64;74.67
78890;BME280;68279;48.964;14.502;2023-06-10T09:33:12;96924.28;;;20.61;75.63
78890;BME280;68279;48.964;14.502;2023-06-10T09:35:45;96922.44;;;20.65;72.27
78890;BME280;68279;48.964;14.502;2023-06-10T09:38:14;96931.69;;;20.92;70.73
78890;BME280;68279;48.964;14.502;2023-06-10T09:40:54;96924.75;;;20.23;75.56
78890;BME280;68279;48.964;14.502;2023-06-10T09:43:20;96924.72;;;20.63;74.27
78890;BME280;68279;48.964;14.502;2023-06-10T09:45:56;96920.63;;;20.69;71.58
78890;BME280;68279;48.964;14.502;2023-06-10T09:48:25;96919.69;;;21.09;72.47
78890;BME280;68279;48.964;14.502;2023-06-10T09:50:50;96914.75;;;20.83;71.57
78890;BME280;68279;48.964;14.502;2023-06-10T09:53:17;96919.50;;;21.02;72.78
78890;BME280;68279;48.964;14.502;2023-06-10T09:55:43;96928.63;;;20.93;71.13
78890;BME280;68279;48.964;14.502;2023-06-10T09:58:09;96919.94;;;20.72;74.72
78890;BME280;68279;48.964;14.502;2023-06-10T10:00:36;96926.75;;;20.38;72.98
78890;BME280;68279;48.964;14.502;2023-06-10T10:03:01;96928.50;;;20.58;71.88
78890;BME280;68279;48.964;14.502;2023-06-10T10:05:27;96924.38;;;20.36;74.37
78890;BME280;68279;48.964;14.502;2023-06-10T10:07:54;96915.53;;;20.83;72.37
78890;BME280;68279;48.964;14.502;2023-06-10T10:10:22;96926.78;;;21.96;67.49
78890;BME280;68279;48.964;14.502;2023-06-10T10:12:53;96920.13;;;21.93;68.29
78890;BME280;68279;48.964;14.502;2023-06-10T10:15:21;96924.94;;;22.00;67.01
78890;BME280;68279;48.964;14.502;2023-06-10T10:18:07;96915.28;;;22.22;66.46
78890;BME280;68279;48.964;14.502;2023-06-10T10:20:35;96914.38;;;21.98;62.62
78890;BME280;68279;48.964;14.502;2023-06-10T10:23:03;96908.09;;;21.94;63.09
78890;BME280;68279;48.964;14.502;2023-06-10T10:25:34;96902.22;;;22.50;63.04
78890;BME280;68279;48.964;14.502;2023-06-10T10:28:14;96907.47;;;22.20;64.05
78890;BME280;68279;48.964;14.502;2023-06-10T10:30:53;96892.81;;;23.13;63.96
78890;BME280;68279;48.964;14.502;2023-06-10T10:33:22;96898.13;;;22.60;65.15
78890;BME280;68279;48.964;14.502;2023-06-10T10:35:54;96898.00;;;22.53;62.24
78890;BME280;68279;48.964;14.502;2023-06-10T10:38:22;96890.38;;;22.04;63.18
78890;BME280;68279;48.964;14.502;2023-06-10T10:40:48;96892.19;;;22.54;63.30
78890;BME280;68279;48.964;14.502;2023-06-10T10:43:15;96882.03;;;22.74;61.54
78890;BME280;68279;48.964;14.502;2023-06-10T10:45:42;96885.47;;;22.91;63.76
78890;BME280;68279;48.964;14.502;2023-06-10T10:48:09;96881.63;;;22.95;64.16
78890;BME280;68279;48.964;14.502;2023-06-10T10:50:38;96875.13;;;23.26;59.82
78890;BME280;68279;48.964;14.502;2023-06-10T10:53:05;96874.72;;;23.01;64.01
78890;BME280;68279;48.964;14.502;2023-06-10T10:55:33;96873.56;;;23.02;58.98
78890;BME280;68279;48.964;14.502;2023-06-10T11:00:30;96872.38;;;24.09;56.83
78890;BME280;68279;48.964;14.502;2023-06-10T11:03:06;96874.31;;;24.09;59.26
78890;BME280;68279;48.964;14.502;2023-06-10T11:07:58;96861.84;;;23.78;60.64
78890;BME280;68279;48.964;14.502;2023-06-10T11:10:37;96864.50;;;23.74;60.96
78890;BME280;68279;48.964;14.502;2023-06-10T11:13:23;96860.13;;;23.66;60.33
78890;BME280;68279;48.964;14.502;2023-06-10T11:15:57;96866.03;;;24.01;61.91
78890;BME280;68279;48.964;14.502;2023-06-10T11:18:29;96854.38;;;24.38;61.37
78890;BME280;68279;48.964;14.502;2023-06-10T11:21:00;96855.31;;;24.94;58.43
78890;BME280;68279;48.964;14.502;2023-06-10T11:23:30;96855.72;;;24.92;58.03
78890;BME280;68279;48.964;14.502;2023-06-10T11:28:41;96846.72;;;24.92;57.56
78890;BME280;68279;48.964;14.502;2023-06-10T11:31:09;96848.22;;;24.85;55.68
78890;BME280;68279;48.964;14.502;2023-06-10T11:33:55;96849.13;;;25.00;54.44
78890;BME280;68279;48.964;14.502;2023-06-10T11:36:25;96841.78;;;23.66;56.47
78890;BME280;68279;48.964;14.502;2023-06-10T11:38:55;96842.03;;;25.43;60.10
78890;BME280;68279;48.964;14.502;2023-06-10T11:41:21;96837.97;;;25.82;55.15
78890;BME280;68279;48.964;14.502;2023-06-10T11:43:48;96838.41;;;25.29;53.86
78890;BME280;68279;48.964;14.502;2023-06-10T11:46:14;96836.81;;;24.76;54.19
78890;BME280;68279;48.964;14.502;2023-06-10T11:49:00;96838.22;;;23.62;61.79
78890;BME280;68279;48.964;14.502;2023-06-10T11:51:45;96831.84;;;23.25;62.58
78890;BME280;68279;48.964;14.502;2023-06-10T11:54:16;96834.69;;;23.92;61.54
78890;BME280;68279;48.964;14.502;2023-06-10T11:56:42;96837.78;;;23.87;60.54
78890;BME280;68279;48.964;14.502;2023-06-10T11:59:07;96833.47;;;23.86;61.51
78890;BME280;68279;48.964;14.502;2023-06-10T12:01:37;96838.09;;;23.55;62.00
78890;BME280;68279;48.964;14.502;2023-06-10T12:06:52;96842.09;;;22.63;62.41
78890;BME280;68279;48.964;14.502;2023-06-10T12:09:22;96853.69;;;22.37;64.22
78890;BME280;68279;48.964;14.502;2023-06-10T12:19:58;96876.50;;;18.33;84.87
78890;BME280;68279;48.964;14.502;2023-06-10T12:22:25;96882.28;;;18.10;85.48
78890;BME280;68279;48.964;14.502;2023-06-10T12:24:59;96888.50;;;17.90;86.66
78890;BME280;68279;48.964;14.502;2023-06-10T12:27:25;96883.00;;;17.99;87.73
78890;BME280;68279;48.964;14.502;2023-06-10T12:29:52;96879.38;;;18.16;85.88
78890;BME280;68279;48.964;14.502;2023-06-10T12:32:21;96874.25;;;18.35;84.44
78890;BME280;68279;48.964;14.502;2023-06-10T12:35:04;96866.09;;;18.23;85.32
78890;BME280;68279;48.964;14.502;2023-06-10T12:37:30;96867.91;;;18.31;85.13
78890;BME280;68279;48.964;14.502;2023-06-10T12:40:00;96850.94;;;18.55;83.98
78890;BME280;68279;48.964;14.502;2023-06-10T12:42:27;96851.75;;;18.55;86.70
78890;BME280;68279;48.964;14.502;2023-06-10T12:44:54;96845.91;;;19.14;82.65
78890;BME280;68279;48.964;14.502;2023-06-10T12:47:29;96849.41;;;18.90;88.21
78890;BME280;68279;48.964;14.502;2023-06-10T12:49:57;96845.50;;;19.00;85.45
78890;BME280;68279;48.964;14.502;2023-06-10T12:52:24;96844.34;;;18.89;87.00
78890;BME280;68279;48.964;14.502;2023-06-10T12:54:50;96852.81;;;19.12;88.03
78890;BME280;68279;48.964;14.502;2023-06-10T12:57:17;96852.91;;;18.66;88.14
78890;BME280;68279;48.964;14.502;2023-06-10T12:59:44;96857.78;;;18.85;89.14
78890;BME280;68279;48.964;14.502;2023-06-10T13:02:15;96851.44;;;18.24;90.20
78890;BME280;68279;48.964;14.502;2023-06-10T13:04:46;96855.91;;;18.53;87.24
78890;BME280;68279;48.964;14.502;2023-06-10T13:07:12;96866.72;;;19.10;85.41
78890;BME280;68279;48.964;14.502;2023-06-10T13:09:39;96881.19;;;19.27;80.62